Time;durP1;ratioP1;P1;durP2;ratioP2;P2;SDS_P1;SDS_P2;PMS_P1;PMS_P2;Temp;Humidity;BMP_temperature;BMP_pressure;BME280_temperature;BME280_humidity;BME280_pressure;Samples;Min_cycle;Max_cycle;Signal;HPM_P1;HPM_P2
2021/04/15 00:00:04;;;;;;;;;;;18.50;45.90;;;;;;4824170;29;19933;-89
2021/04/15 00:02:30;;;;;;;;;;;18.50;45.80;;;;;;4822779;29;19937;-89
2021/04/15 00:05:17;;;;;;;;;;;18.40;45.80;;;;;;4840195;29;19932;-90
2021/04/15 00:07:43;;;;;;;;;;;18.50;45.90;;;;;;4814544;29;19936;-90
2021/04/15 01:23:13;;;;;;;;;;;18.20;46.20;;;;;;4805546;29;20412;-87
2021/04/15 01:25:57;;;;;;;;;;;18.10;46.20;;;;;;4802806;29;20216;-89
2021/04/15 01:28:29;;;;;;;;;;;18.20;46.60;;;;;;4794954;29;20014;-88
2021/04/15 01:31:15;;;;;;;;;;;18.10;46.20;;;;;;4798461;29;20773;-88
2021/04/15 01:33:44;;;;;;;;;;;18.10;46.20;;;;;;4770564;29;19943;-88
2021/04/15 01:36:15;;;;;;;;;;;18.20;46.20;;;;;;4782285;29;20375;-89
2021/04/15 01:38:45;;;;;;;;;;;18.10;46.20;;;;;;4789552;29;19933;-89
2021/04/15 01:41:23;;;;;;;;;;;18.10;46.20;;;;;;4795110;29;19956;-89
2021/04/15 01:43:58;;;;;;;;;;;18.10;46.20;;;;;;4801086;29;20394;-90
2021/04/15 01:46:26;;;;;;;;;;;18.10;46.20;;;;;;4798516;29;19929;-91
2021/04/15 01:48:53;;;;;;;;;;;18.10;46.20;;;;;;4803203;29;19955;-89
2021/04/15 01:51:27;;;;;;;;;;;18.00;46.20;;;;;;4813075;29;20039;-89
2021/04/15 01:53:58;;;;;;;;;;;18.10;46.20;;;;;;4819354;29;19933;-88
2021/04/15 01:56:44;;;;;;;;;;;18.10;46.30;;;;;;4817765;29;21592;-88
2021/04/15 01:59:15;;;;;;;;;;;18.10;46.20;;;;;;4791254;29;19928;-88
2021/04/15 02:01:49;;;;;;;;;;;18.10;46.20;;;;;;4816180;29;19936;-88
2021/04/15 02:04:25;;;;;;;;;;;18.10;46.20;;;;;;4814343;29;19966;-88
2021/04/15 02:06:54;;;;;;;;;;;18.00;46.20;;;;;;4813346;29;19959;-89
2021/04/15 02:09:21;;;;;;;;;;;18.00;46.30;;;;;;4813951;29;20288;-88
2021/04/15 02:12:10;;;;;;;;;;;18.00;46.30;;;;;;4794059;29;19932;-88
2021/04/15 02:14:40;;;;;;;;;;;18.00;46.30;;;;;;4805620;29;19944;-89
2021/04/15 02:17:09;;;;;;;;;;;18.00;46.30;;;;;;4813374;29;19933;-90
2021/04/15 02:19:41;;;;;;;;;;;18.00;46.30;;;;;;4817399;29;19929;-90
2021/04/15 02:22:10;;;;;;;;;;;18.00;46.30;;;;;;4807121;29;19939;-90
2021/04/15 02:24:43;;;;;;;;;;;18.00;46.30;;;;;;4822912;29;19929;-90
2021/04/15 02:27:10;;;;;;;;;;;18.00;46.40;;;;;;4811166;29;19932;-90
2021/04/15 02:29:37;;;;;;;;;;;18.00;46.40;;;;;;4821960;29;19940;-88
2021/04/15 02:32:16;;;;;;;;;;;17.90;46.30;;;;;;4820909;29;19929;-88
2021/04/15 02:34:48;;;;;;;;;;;18.00;46.30;;;;;;4821069;29;20227;-89
2021/04/15 02:37:18;;;;;;;;;;;17.90;46.30;;;;;;4818424;29;19929;-88
2021/04/15 02:39:53;;;;;;;;;;;17.90;46.30;;;;;;4825985;29;19936;-89
2021/04/15 02:42:26;;;;;;;;;;;17.90;46.30;;;;;;4820533;29;19929;-87
2021/04/15 02:44:57;;;;;;;;;;;17.90;46.30;;;;;;4825567;29;19928;-89
2021/04/15 02:47:29;;;;;;;;;;;17.90;46.30;;;;;;4805582;29;19937;-87
2021/04/15 02:49:56;;;;;;;;;;;17.90;46.40;;;;;;4830615;29;20343;-89
2021/04/15 02:52:25;;;;;;;;;;;17.90;46.40;;;;;;4820824;29;19940;-88
2021/04/15 02:55:08;;;;;;;;;;;17.90;46.40;;;;;;4798074;29;19939;-90
2021/04/15 02:57:58;;;;;;;;;;;17.90;46.40;;;;;;4808256;29;19936;-89
2021/04/15 03:00:32;;;;;;;;;;;17.90;46.40;;;;;;4803895;29;19940;-90
2021/04/15 03:03:09;;;;;;;;;;;17.90;46.40;;;;;;4819890;29;19929;-89
2021/04/15 03:05:54;;;;;;;;;;;17.90;46.40;;;;;;4801482;29;19936;-90
2021/04/15 03:08:23;;;;;;;;;;;17.90;46.40;;;;;;4818768;29;19952;-90
2021/04/15 03:10:51;;;;;;;;;;;17.90;46.40;;;;;;4820912;29;20856;-90
2021/04/15 03:13:21;;;;;;;;;;;17.80;46.40;;;;;;4821588;29;20655;-90
2021/04/15 03:15:49;;;;;;;;;;;17.80;46.40;;;;;;4819800;29;19924;-89
2021/04/15 03:18:20;;;;;;;;;;;17.80;46.40;;;;;;4840952;29;19940;-91
2021/04/15 03:21:07;;;;;;;;;;;17.80;46.40;;;;;;4823938;29;19937;-89
2021/04/15 03:23:38;;;;;;;;;;;17.80;46.40;;;;;;4812654;29;19917;-89
2021/04/15 03:26:24;;;;;;;;;;;17.80;46.40;;;;;;4820107;29;20020;-88
2021/04/15 03:28:59;;;;;;;;;;;17.80;46.40;;;;;;4819924;29;20044;-89
2021/04/15 03:31:28;;;;;;;;;;;17.80;46.40;;;;;;4818086;29;20216;-90
2021/04/15 03:33:58;;;;;;;;;;;17.80;46.40;;;;;;4821472;29;19929;-90
2021/04/15 03:36:26;;;;;;;;;;;17.80;46.40;;;;;;4821251;29;20469;-90
2021/04/15 03:39:03;;;;;;;;;;;17.80;46.50;;;;;;4809301;29;19938;-90
2021/04/15 03:41:40;;;;;;;;;;;17.80;46.40;;;;;;4822490;29;20074;-91
2021/04/15 03:44:09;;;;;;;;;;;17.80;46.50;;;;;;4821808;29;19933;-90
2021/04/15 03:46:53;;;;;;;;;;;17.80;46.50;;;;;;4824960;29;19964;-91
2021/04/15 03:49:30;;;;;;;;;;;17.70;46.40;;;;;;4816490;29;26025;-91
2021/04/15 03:51:59;;;;;;;;;;;17.80;46.50;;;;;;4829220;29;20553;-90
2021/04/15 03:54:28;;;;;;;;;;;17.80;46.50;;;;;;4824441;29;19956;-91
2021/04/15 03:56:56;;;;;;;;;;;17.70;46.50;;;;;;4813267;29;20307;-91
2021/04/15 03:59:37;;;;;;;;;;;17.70;46.50;;;;;;4814300;29;19959;-92
2021/04/15 04:02:06;;;;;;;;;;;17.70;46.50;;;;;;4819552;29;19929;-93
2021/04/15 04:04:39;;;;;;;;;;;17.70;46.50;;;;;;4816861;29;20297;-92
2021/04/15 04:07:15;;;;;;;;;;;17.70;46.50;;;;;;4812990;29;19929;-92
2021/04/15 04:09:43;;;;;;;;;;;17.70;46.60;;;;;;4833130;29;19952;-91
2021/04/15 04:12:16;;;;;;;;;;;17.70;46.60;;;;;;4821073;29;19928;-90
2021/04/15 04:14:52;;;;;;;;;;;17.70;46.60;;;;;;4819343;29;19981;-90
2021/04/15 04:17:22;;;;;;;;;;;17.70;46.50;;;;;;4825356;29;19929;-91
2021/04/15 04:19:53;;;;;;;;;;;17.70;46.60;;;;;;4819745;29;20414;-91
2021/04/15 04:22:31;;;;;;;;;;;17.70;46.60;;;;;;4820202;29;19936;-90
2021/04/15 04:25:01;;;;;;;;;;;17.70;46.60;;;;;;4821744;29;20157;-90
2021/04/15 04:27:28;;;;;;;;;;;17.70;46.60;;;;;;4821580;29;20540;-92
2021/04/15 04:29:56;;;;;;;;;;;17.70;46.60;;;;;;4820721;29;19935;-92
2021/04/15 04:32:24;;;;;;;;;;;17.70;46.60;;;;;;4832406;29;19935;-92
2021/04/15 04:34:53;;;;;;;;;;;17.70;46.60;;;;;;4830132;29;19929;-91
2021/04/15 04:37:20;;;;;;;;;;;17.70;46.60;;;;;;4824817;29;19929;-90
2021/04/15 04:39:57;;;;;;;;;;;17.60;46.60;;;;;;4828102;29;20026;-91
2021/04/15 04:42:27;;;;;;;;;;;17.70;46.60;;;;;;4819030;29;20331;-90
2021/04/15 04:44:57;;;;;;;;;;;17.60;46.50;;;;;;4833635;29;19985;-89
2021/04/15 04:47:31;;;;;;;;;;;17.60;46.50;;;;;;4824606;29;19928;-91
2021/04/15 04:50:13;;;;;;;;;;;17.60;46.50;;;;;;4831040;29;20453;-90
2021/04/15 04:52:41;;;;;;;;;;;17.60;46.50;;;;;;4837945;29;21621;-91
2021/04/15 04:55:20;;;;;;;;;;;17.60;46.60;;;;;;4823948;29;19983;-88
2021/04/15 04:57:47;;;;;;;;;;;17.60;46.60;;;;;;4831904;29;19929;-90
2021/04/15 05:00:16;;;;;;;;;;;17.60;46.60;;;;;;4808847;29;20449;-91
2021/04/15 05:02:42;;;;;;;;;;;17.60;46.60;;;;;;4824366;29;19948;-91
2021/04/15 05:05:20;;;;;;;;;;;17.60;46.60;;;;;;4815318;29;19968;-91
2021/04/15 05:07:48;;;;;;;;;;;17.60;46.60;;;;;;4800646;29;19939;-91
2021/04/15 05:10:24;;;;;;;;;;;17.60;46.70;;;;;;4815603;29;20366;-95
2021/04/15 05:19:58;;;;;;;;;;;17.60;46.70;;;;;;4696137;23;19931;-92
2021/04/15 05:22:46;;;;;;;;;;;17.60;46.70;;;;;;3835226;23;20255;-92
2021/04/15 05:25:21;;;;;;;;;;;17.60;46.80;;;;;;4789888;29;19940;-88
2021/04/15 05:27:48;;;;;;;;;;;17.60;46.80;;;;;;4802872;29;19929;-92
2021/04/15 05:30:20;;;;;;;;;;;17.50;46.70;;;;;;4808522;29;19980;-87
2021/04/15 05:33:09;;;;;;;;;;;17.60;46.90;;;;;;4808215;29;19917;-90
2021/04/15 05:35:47;;;;;;;;;;;17.60;47.00;;;;;;4782308;29;20407;-90
2021/04/15 05:38:14;;;;;;;;;;;17.60;47.10;;;;;;4796390;29;19957;-93
2021/04/15 05:40:44;;;;;;;;;;;17.60;47.10;;;;;;4816426;29;19939;-90
2021/04/15 05:43:17;;;;;;;;;;;17.60;47.10;;;;;;4807215;29;19945;-93
2021/04/15 05:45:48;;;;;;;;;;;17.60;47.10;;;;;;4816722;29;19921;-93
2021/04/15 05:48:29;;;;;;;;;;;17.60;47.10;;;;;;4788791;29;19928;-93
2021/04/15 05:51:03;;;;;;;;;;;17.50;47.10;;;;;;4806727;29;22710;-91
2021/04/15 05:53:38;;;;;;;;;;;17.60;47.00;;;;;;4807804;29;19954;-87
2021/04/15 05:56:08;;;;;;;;;;;17.60;47.10;;;;;;4809885;29;20413;-94
2021/04/15 05:58:43;;;;;;;;;;;17.60;47.40;;;;;;4792939;29;20023;-92
2021/04/15 06:01:16;;;;;;;;;;;17.50;47.40;;;;;;4807909;29;19935;-91
2021/04/15 06:03:54;;;;;;;;;;;17.60;47.50;;;;;;4829342;29;19937;-91
2021/04/15 06:06:28;;;;;;;;;;;17.60;47.40;;;;;;4799201;29;20020;-91
2021/04/15 06:08:54;;;;;;;;;;;17.60;47.40;;;;;;4807276;29;19929;-86
2021/04/15 06:11:39;;;;;;;;;;;17.60;47.40;;;;;;4823891;29;19937;-86
2021/04/15 06:14:26;;;;;;;;;;;17.60;47.40;;;;;;4803848;29;20622;-87
2021/04/15 06:17:11;;;;;;;;;;;17.60;47.30;;;;;;4815003;29;20487;-89
2021/04/15 06:20:11;;;;;;;;;;;17.60;47.20;;;;;;4792399;29;19916;-92
2021/04/15 06:22:39;;;;;;;;;;;17.60;47.20;;;;;;4796002;29;20863;-88
2021/04/15 06:25:07;;;;;;;;;;;17.60;47.20;;;;;;4834429;29;19955;-87
2021/04/15 06:27:37;;;;;;;;;;;17.50;47.10;;;;;;4842709;29;19935;-85
2021/04/15 06:30:21;;;;;;;;;;;17.50;47.10;;;;;;4836689;29;19916;-86
2021/04/15 06:33:07;;;;;;;;;;;17.60;46.90;;;;;;4849877;29;19947;-85
2021/04/15 06:35:34;;;;;;;;;;;17.50;46.70;;;;;;4870982;29;21262;-92
2021/04/15 06:40:42;;;;;;;;;;;17.60;47.40;;;;;;4761773;23;19923;-93
2021/04/15 06:43:45;;;;;;;;;;;17.60;47.30;;;;;;4871056;29;19923;-90
2021/04/15 06:46:24;;;;;;;;;;;17.60;47.60;;;;;;3709795;23;20309;-94
2021/04/15 06:52:00;;;;;;;;;;;17.60;47.30;;;;;;3627716;24;19928;-89
2021/04/15 06:54:35;;;;;;;;;;;17.60;47.20;;;;;;4805849;29;20145;-91
2021/04/15 06:57:03;;;;;;;;;;;17.60;47.10;;;;;;4835377;29;19932;-89
2021/04/15 06:59:50;;;;;;;;;;;17.60;47.30;;;;;;4826938;29;20022;-91
2021/04/15 07:02:35;;;;;;;;;;;17.70;47.80;;;;;;4804154;29;19981;-88
2021/04/15 07:05:09;;;;;;;;;;;18.50;47.10;;;;;;4808607;29;19932;-86
2021/04/15 07:07:40;;;;;;;;;;;19.30;45.90;;;;;;4843464;29;19928;-91
2021/04/15 07:10:25;;;;;;;;;;;19.70;44.90;;;;;;4827073;29;20309;-91
2021/04/15 07:12:58;;;;;;;;;;;20.10;44.40;;;;;;4825750;29;20019;-89
2021/04/15 07:15:43;;;;;;;;;;;20.50;43.70;;;;;;4826940;29;19935;-92
2021/04/15 07:18:09;;;;;;;;;;;20.70;43.30;;;;;;4841748;29;19936;-85
2021/04/15 07:20:54;;;;;;;;;;;20.90;42.70;;;;;;4855280;29;19928;-87
2021/04/15 07:23:39;;;;;;;;;;;21.20;42.40;;;;;;4841009;29;19960;-86
2021/04/15 07:26:35;;;;;;;;;;;21.40;42.20;;;;;;4840003;29;19939;-90
2021/04/15 07:29:20;;;;;;;;;;;21.60;41.80;;;;;;4845214;29;19943;-87
2021/04/15 07:32:17;;;;;;;;;;;21.90;41.60;;;;;;4842691;29;19936;-91
2021/04/15 07:35:05;;;;;;;;;;;22.00;41.40;;;;;;4826186;29;19928;-90
2021/04/15 07:37:41;;;;;;;;;;;22.10;41.20;;;;;;4838299;29;20011;-84
2021/04/15 07:40:14;;;;;;;;;;;22.20;41.00;;;;;;4846420;29;20038;-85
2021/04/15 07:42:43;;;;;;;;;;;22.40;40.70;;;;;;4827890;29;19932;-84
2021/04/15 07:45:13;;;;;;;;;;;22.50;40.60;;;;;;4843175;29;19932;-84
2021/04/15 07:47:58;;;;;;;;;;;22.60;40.20;;;;;;4828554;29;19971;-83
2021/04/15 07:50:43;;;;;;;;;;;22.80;39.90;;;;;;4851845;29;20332;-87
2021/04/15 07:53:17;;;;;;;;;;;22.90;39.80;;;;;;4824503;29;19935;-86
2021/04/15 07:55:52;;;;;;;;;;;23.00;40.00;;;;;;4841548;29;19932;-86
2021/04/15 07:58:28;;;;;;;;;;;23.00;39.90;;;;;;4849441;29;19935;-87
2021/04/15 08:00:54;;;;;;;;;;;23.20;39.60;;;;;;4849962;29;20398;-87
2021/04/15 08:03:45;;;;;;;;;;;23.40;39.50;;;;;;4842027;29;20031;-85
2021/04/15 08:23:20;;;;;;;;;;;23.70;38.80;;;;;;5073225;27;19925;-54
2021/04/15 08:26:05;;;;;;;;;;;23.50;39.00;;;;;;5064029;28;19933;-51
2021/04/15 08:28:39;;;;;;;;;;;23.50;37.90;;;;;;5042094;28;20546;-53
2021/04/15 08:31:05;;;;;;;;;;;23.20;38.00;;;;;;5047674;28;20324;-58
2021/04/15 08:33:50;;;;;;;;;;;23.00;38.30;;;;;;5056694;28;19932;-58
2021/04/15 08:36:34;;;;;;;;;;;23.00;39.30;;;;;;5041964;28;19925;-61
2021/04/15 08:39:19;;;;;;;;;;;23.00;40.70;;;;;;5053547;28;20642;-61
2021/04/15 08:42:04;;;;;;;;;;;23.70;40.80;;;;;;5058899;28;20412;-63
2021/04/15 08:44:51;;;;;;;;;;;24.20;40.20;;;;;;5040037;28;19947;-62
2021/04/15 08:47:23;;;;;;;;;;;24.60;39.40;;;;;;5055796;28;20170;-56
2021/04/15 08:50:01;;;;;;;;;;;25.00;39.10;;;;;;5061050;28;19928;-59
2021/04/15 08:52:37;;;;;;;;;;;25.30;38.80;;;;;;5054942;28;20207;-61
2021/04/15 08:55:22;;;;;;;;;;;25.40;38.70;;;;;;5056274;28;19963;-57
2021/04/15 08:57:56;;;;;;;;;;;25.70;38.20;;;;;;5059741;28;19932;-57
2021/04/15 09:00:40;;;;;;;;;;;25.80;38.00;;;;;;5060089;28;20905;-57
2021/04/15 09:03:26;;;;;;;;;;;25.90;38.00;;;;;;5048645;28;20792;-55
2021/04/15 09:06:03;;;;;;;;;;;25.90;38.00;;;;;;5058720;28;21254;-58
2021/04/15 09:08:41;;;;;;;;;;;26.00;37.80;;;;;;5054460;28;20736;-56
2021/04/15 09:14:48;;;;;;;;;;;26.20;37.90;;;;;;5034247;28;20277;-59
2021/04/15 09:17:17;;;;;;;;;;;26.30;37.90;;;;;;5035590;28;19932;-55
2021/04/15 09:19:58;;;;;;;;;;;25.90;38.80;;;;;;5038223;28;19932;-56
2021/04/15 09:22:43;;;;;;;;;;;25.30;39.70;;;;;;5047319;28;19988;-55
2021/04/15 09:25:30;;;;;;;;;;;24.90;40.90;;;;;;5025536;28;20496;-58
2021/04/15 09:28:15;;;;;;;;;;;24.60;41.20;;;;;;5045726;28;20377;-57
2021/04/15 09:31:05;;;;;;;;;;;24.50;41.10;;;;;;5033056;28;20480;-58
2021/04/15 09:33:34;;;;;;;;;;;24.40;41.80;;;;;;5047569;28;20475;-58
2021/04/15 09:36:07;;;;;;;;;;;24.30;41.90;;;;;;5023019;28;19929;-60
2021/04/15 09:38:51;;;;;;;;;;;24.20;41.70;;;;;;5023926;28;19928;-60
2021/04/15 09:41:34;;;;;;;;;;;24.10;41.90;;;;;;5021226;28;19940;-57
2021/04/15 09:44:23;;;;;;;;;;;24.10;41.50;;;;;;5028801;28;22519;-57
2021/04/15 09:46:53;;;;;;;;;;;24.00;41.80;;;;;;5028663;28;20412;-55
2021/04/15 09:49:28;;;;;;;;;;;24.00;42.20;;;;;;5026564;28;20707;-56
2021/04/15 09:51:54;;;;;;;;;;;24.00;42.10;;;;;;5025255;28;20976;-56
2021/04/15 09:54:27;;;;;;;;;;;24.00;41.70;;;;;;5043320;28;19929;-56
2021/04/15 09:57:12;;;;;;;;;;;23.90;42.20;;;;;;5025895;28;21179;-62
2021/04/15 10:00:03;;;;;;;;;;;23.90;42.00;;;;;;5012219;28;20320;-60
2021/04/15 10:02:36;;;;;;;;;;;23.90;41.80;;;;;;5044802;28;20320;-59
2021/04/15 10:05:03;;;;;;;;;;;23.90;42.70;;;;;;5040122;28;20011;-58
2021/04/15 10:07:49;;;;;;;;;;;23.80;42.90;;;;;;5048377;28;19925;-56
2021/04/15 10:10:23;;;;;;;;;;;23.80;42.40;;;;;;5043961;28;19925;-56
2021/04/15 10:13:11;;;;;;;;;;;23.60;39.00;;;;;;5045048;28;19929;-57
2021/04/15 10:15:55;;;;;;;;;;;22.80;39.60;;;;;;5020032;28;20603;-57
2021/04/15 10:18:35;;;;;;;;;;;22.60;40.40;;;;;;5051016;28;19925;-57
2021/04/15 10:21:25;;;;;;;;;;;22.40;40.90;;;;;;5048350;28;21310;-57
2021/04/15 10:23:57;;;;;;;;;;;22.40;41.20;;;;;;5002996;28;19929;-56
2021/04/15 10:26:26;;;;;;;;;;;22.30;41.40;;;;;;5038879;28;20707;-57
2021/04/15 10:28:56;;;;;;;;;;;22.20;41.60;;;;;;5033969;28;21753;-56
2021/04/15 10:31:22;;;;;;;;;;;22.20;41.70;;;;;;5030154;28;19933;-56
2021/04/15 10:33:56;;;;;;;;;;;22.10;41.80;;;;;;5027032;28;19933;-57
2021/04/15 10:36:35;;;;;;;;;;;22.10;41.90;;;;;;5027450;28;20513;-57
2021/04/15 10:39:07;;;;;;;;;;;22.00;42.00;;;;;;5040663;28;20421;-57
2021/04/15 10:41:33;;;;;;;;;;;21.90;42.00;;;;;;5047508;28;19932;-58
2021/04/15 10:44:05;;;;;;;;;;;21.90;42.10;;;;;;5045446;28;19932;-57
2021/04/15 10:46:40;;;;;;;;;;;21.80;42.10;;;;;;5030716;28;20390;-58
2021/04/15 10:49:15;;;;;;;;;;;21.80;42.30;;;;;;5037061;28;19986;-57
2021/04/15 10:51:59;;;;;;;;;;;21.70;42.30;;;;;;5037031;28;20422;-57
2021/04/15 10:54:25;;;;;;;;;;;21.70;42.70;;;;;;5024830;28;20485;-57
2021/04/15 10:56:53;;;;;;;;;;;21.70;42.90;;;;;;5026986;28;19954;-57
2021/04/15 10:59:27;;;;;;;;;;;21.60;43.00;;;;;;5007194;28;19929;-57
2021/04/15 11:02:12;;;;;;;;;;;21.60;43.00;;;;;;5041242;28;20810;-57
2021/04/15 11:04:38;;;;;;;;;;;21.50;43.00;;;;;;5011084;28;20393;-57
2021/04/15 11:07:06;;;;;;;;;;;21.50;43.00;;;;;;5024994;28;19928;-58
2021/04/15 11:09:44;;;;;;;;;;;21.40;43.00;;;;;;5025575;28;19932;-58
2021/04/15 11:12:13;;;;;;;;;;;21.40;43.10;;;;;;5026314;28;19960;-58
2021/04/15 11:14:46;;;;;;;;;;;21.40;43.20;;;;;;5027946;28;19925;-58
2021/04/15 11:17:27;;;;;;;;;;;21.30;43.10;;;;;;5035212;28;19975;-58
2021/04/15 11:20:08;;;;;;;;;;;21.30;43.10;;;;;;5043216;28;20469;-58
2021/04/15 11:22:35;;;;;;;;;;;21.30;43.10;;;;;;4989814;28;20374;-58
2021/04/15 11:25:11;;;;;;;;;;;21.30;43.10;;;;;;5026320;28;19975;-58
2021/04/15 11:27:38;;;;;;;;;;;21.30;43.00;;;;;;5026782;28;19933;-58
2021/04/15 11:30:29;;;;;;;;;;;21.30;43.00;;;;;;5039926;28;19935;-57
2021/04/15 11:32:55;;;;;;;;;;;21.20;43.00;;;;;;5028884;28;20309;-56
2021/04/15 11:35:22;;;;;;;;;;;21.20;43.10;;;;;;5036049;28;20545;-56
2021/04/15 11:37:50;;;;;;;;;;;21.20;43.00;;;;;;5023553;28;19929;-56
2021/04/15 11:40:16;;;;;;;;;;;21.20;43.10;;;;;;5026966;28;19926;-56
2021/04/15 11:42:43;;;;;;;;;;;21.20;42.90;;;;;;5046864;28;19924;-56
2021/04/15 11:45:23;;;;;;;;;;;21.10;42.80;;;;;;5024758;28;19956;-57
2021/04/15 11:47:50;;;;;;;;;;;21.10;42.80;;;;;;5028370;28;19936;-57
2021/04/15 11:50:21;;;;;;;;;;;21.10;42.80;;;;;;5043843;28;20581;-58
2021/04/15 11:52:51;;;;;;;;;;;21.10;42.70;;;;;;5042150;28;20899;-56
2021/04/15 11:55:27;;;;;;;;;;;21.10;42.70;;;;;;5041821;28;19933;-57
2021/04/15 11:57:58;;;;;;;;;;;21.10;42.80;;;;;;5046911;28;20280;-56
2021/04/15 12:00:26;;;;;;;;;;;21.20;43.40;;;;;;5045603;28;20378;-59
2021/04/15 12:02:55;;;;;;;;;;;21.30;44.20;;;;;;5020166;28;20314;-58
2021/04/15 12:05:29;;;;;;;;;;;21.40;44.80;;;;;;5027858;28;20405;-58
2021/04/15 12:08:14;;;;;;;;;;;21.60;45.30;;;;;;5038799;28;20512;-62
2021/04/15 12:10:57;;;;;;;;;;;21.80;45.30;;;;;;5023356;28;20480;-59
2021/04/15 12:13:37;;;;;;;;;;;21.80;45.10;;;;;;5044192;28;21914;-62
2021/04/15 12:16:15;;;;;;;;;;;22.00;45.30;;;;;;5012892;28;20358;-60
2021/04/15 12:18:50;;;;;;;;;;;22.00;45.40;;;;;;5023188;28;19925;-60
2021/04/15 12:21:31;;;;;;;;;;;22.10;44.90;;;;;;5020690;28;19925;-59
2021/04/15 12:24:17;;;;;;;;;;;22.10;45.00;;;;;;5022601;28;19933;-60
2021/04/15 12:26:50;;;;;;;;;;;22.20;44.70;;;;;;5038017;28;20425;-61
2021/04/15 12:29:30;;;;;;;;;;;22.30;45.00;;;;;;5024562;28;20493;-59
2021/04/15 12:32:05;;;;;;;;;;;22.30;45.30;;;;;;5022524;28;20758;-61
2021/04/15 12:34:32;;;;;;;;;;;22.40;45.60;;;;;;5024324;28;21263;-61
2021/04/15 12:37:09;;;;;;;;;;;22.40;44.70;;;;;;5030370;28;19925;-59
2021/04/15 12:39:46;;;;;;;;;;;22.50;44.50;;;;;;5036343;28;19924;-59
2021/04/15 12:42:14;;;;;;;;;;;22.50;44.70;;;;;;5036317;28;19940;-62
2021/04/15 12:44:40;;;;;;;;;;;22.60;45.40;;;;;;5035542;28;19932;-61
2021/04/15 12:47:06;;;;;;;;;;;22.60;45.10;;;;;;5041064;28;19929;-59
2021/04/15 12:49:44;;;;;;;;;;;22.70;44.60;;;;;;5043428;28;19933;-62
2021/04/15 12:52:12;;;;;;;;;;;22.70;45.00;;;;;;5042409;28;19935;-59
2021/04/15 12:54:40;;;;;;;;;;;22.70;44.40;;;;;;5042841;28;19933;-60
2021/04/15 12:57:08;;;;;;;;;;;22.80;44.10;;;;;;5041196;28;19936;-60
2021/04/15 12:59:38;;;;;;;;;;;22.80;44.60;;;;;;5028817;28;20428;-59
2021/04/15 13:02:12;;;;;;;;;;;22.80;44.20;;;;;;5032660;28;19924;-57
2021/04/15 13:04:52;;;;;;;;;;;22.80;43.30;;;;;;5028058;28;20458;-57
2021/04/15 13:07:22;;;;;;;;;;;22.40;40.50;;;;;;5028033;28;19925;-54
2021/04/15 13:09:50;;;;;;;;;;;22.20;40.00;;;;;;5030251;28;19936;-57
2021/04/15 13:12:19;;;;;;;;;;;22.10;41.30;;;;;;5028727;28;19932;-56
2021/04/15 13:14:47;;;;;;;;;;;22.20;43.30;;;;;;5031347;28;19925;-56
2021/04/15 13:17:33;;;;;;;;;;;22.40;44.10;;;;;;5023538;28;19933;-57
2021/04/15 13:20:00;;;;;;;;;;;22.50;43.70;;;;;;5030543;28;19925;-57
2021/04/15 13:22:38;;;;;;;;;;;22.60;44.50;;;;;;5033387;28;19939;-57
2021/04/15 13:25:07;;;;;;;;;;;22.70;44.20;;;;;;5041879;28;19929;-58
2021/04/15 13:27:34;;;;;;;;;;;22.70;44.30;;;;;;5040163;28;19933;-60
2021/04/15 13:30:13;;;;;;;;;;;22.70;44.60;;;;;;5043733;28;19925;-59
2021/04/15 13:32:55;;;;;;;;;;;22.80;44.40;;;;;;5044830;28;20003;-58
2021/04/15 13:35:24;;;;;;;;;;;22.80;44.40;;;;;;5041289;28;19925;-59
2021/04/15 13:37:50;;;;;;;;;;;22.80;44.00;;;;;;5048002;28;19940;-58
2021/04/15 13:40:16;;;;;;;;;;;22.90;44.20;;;;;;5047662;28;19933;-57
2021/04/15 13:42:43;;;;;;;;;;;22.90;44.00;;;;;;5043652;28;19964;-57
2021/04/15 13:45:29;;;;;;;;;;;22.90;43.90;;;;;;5019500;28;19964;-57
2021/04/15 13:47:56;;;;;;;;;;;22.90;44.20;;;;;;5029323;28;20693;-57
2021/04/15 13:50:42;;;;;;;;;;;22.90;44.10;;;;;;5043080;28;19933;-60
2021/04/15 13:53:27;;;;;;;;;;;23.00;44.00;;;;;;4995809;28;22562;-56
2021/04/15 13:55:57;;;;;;;;;;;23.00;43.80;;;;;;5037931;28;20824;-58
2021/04/15 13:58:33;;;;;;;;;;;23.00;43.90;;;;;;5047400;28;20962;-57
2021/04/15 14:00:59;;;;;;;;;;;23.00;43.60;;;;;;5044450;28;20819;-59
2021/04/15 14:03:45;;;;;;;;;;;23.00;43.70;;;;;;5045017;28;19979;-56
2021/04/15 14:06:20;;;;;;;;;;;23.00;43.60;;;;;;5029921;28;20279;-58
2021/04/15 14:09:02;;;;;;;;;;;23.00;44.00;;;;;;5033129;28;19940;-59
2021/04/15 14:11:36;;;;;;;;;;;23.10;44.10;;;;;;5023044;28;21261;-55
2021/04/15 14:14:05;;;;;;;;;;;23.10;42.70;;;;;;5042654;28;19932;-55
2021/04/15 14:16:32;;;;;;;;;;;22.60;41.50;;;;;;5050980;28;19924;-64
2021/04/15 14:19:18;;;;;;;;;;;22.60;43.60;;;;;;5045752;28;20400;-62
2021/04/15 14:21:50;;;;;;;;;;;22.80;43.80;;;;;;5037594;28;19929;-63
2021/04/15 14:24:23;;;;;;;;;;;22.90;43.20;;;;;;5025452;28;19933;-62
2021/04/15 14:26:51;;;;;;;;;;;22.90;43.30;;;;;;5026872;28;19926;-63
2021/04/15 14:29:19;;;;;;;;;;;23.00;43.30;;;;;;5025945;28;19932;-62
2021/04/15 14:32:01;;;;;;;;;;;23.00;43.30;;;;;;5043613;28;20767;-62
2021/04/15 14:34:33;;;;;;;;;;;23.00;43.60;;;;;;5044388;28;20382;-64
2021/04/15 14:37:00;;;;;;;;;;;23.10;43.80;;;;;;5038776;28;20826;-62
2021/04/15 14:39:33;;;;;;;;;;;23.10;44.00;;;;;;5036596;28;19963;-62
2021/04/15 14:42:00;;;;;;;;;;;23.10;44.00;;;;;;5039493;28;21392;-62
2021/04/15 14:44:28;;;;;;;;;;;23.10;43.90;;;;;;5044922;28;19928;-64
2021/04/15 14:46:54;;;;;;;;;;;23.10;44.10;;;;;;5015010;28;20621;-63
2021/04/15 14:49:26;;;;;;;;;;;23.20;44.10;;;;;;5030407;28;19932;-60
2021/04/15 14:52:08;;;;;;;;;;;23.20;44.00;;;;;;5013644;28;22078;-63
2021/04/15 14:54:36;;;;;;;;;;;23.20;43.90;;;;;;5010991;28;19933;-63
2021/04/15 14:57:04;;;;;;;;;;;23.20;44.10;;;;;;5021053;28;19945;-65
2021/04/15 14:59:38;;;;;;;;;;;23.20;44.80;;;;;;5022218;28;20043;-64
2021/04/15 15:02:12;;;;;;;;;;;23.20;44.70;;;;;;5018097;28;20078;-64
2021/04/15 15:04:39;;;;;;;;;;;23.20;44.50;;;;;;5043561;28;19944;-63
2021/04/15 15:07:06;;;;;;;;;;;23.30;44.10;;;;;;5038336;28;19990;-61
2021/04/15 15:09:33;;;;;;;;;;;23.30;43.90;;;;;;5042351;28;19929;-62
2021/04/15 15:12:03;;;;;;;;;;;23.30;43.90;;;;;;5045219;28;19928;-61
2021/04/15 15:14:31;;;;;;;;;;;23.30;43.90;;;;;;5043441;28;20508;-62
2021/04/15 15:16:58;;;;;;;;;;;23.30;44.30;;;;;;5043681;28;20336;-61
2021/04/15 15:19:26;;;;;;;;;;;23.30;43.50;;;;;;5014484;28;20094;-60
2021/04/15 15:21:56;;;;;;;;;;;23.30;43.80;;;;;;5042377;28;20646;-62
2021/04/15 15:24:22;;;;;;;;;;;23.30;43.80;;;;;;5040107;28;19936;-62
2021/04/15 15:26:53;;;;;;;;;;;23.30;43.90;;;;;;5037759;28;19948;-60
2021/04/15 15:29:21;;;;;;;;;;;23.30;44.00;;;;;;5036929;28;19983;-58
2021/04/15 15:32:11;;;;;;;;;;;23.40;44.00;;;;;;5024469;28;20642;-60
2021/04/15 15:34:38;;;;;;;;;;;23.30;43.90;;;;;;5019581;28;19940;-66
2021/04/15 15:37:31;;;;;;;;;;;23.40;44.00;;;;;;5021420;28;19936;-57
2021/04/15 15:39:58;;;;;;;;;;;22.80;41.70;;;;;;5037401;28;20512;-58
2021/04/15 15:42:44;;;;;;;;;;;22.70;41.80;;;;;;5026900;28;21210;-55
2021/04/15 15:45:43;;;;;;;;;;;22.60;41.90;;;;;;5000030;28;20286;-59
2021/04/15 15:48:55;;;;;;;;;;;22.60;42.10;;;;;;4984793;28;20379;-59
2021/04/15 15:51:27;;;;;;;;;;;22.50;42.30;;;;;;4976367;28;20480;-58
2021/04/15 15:53:53;;;;;;;;;;;22.40;42.30;;;;;;5024770;28;20374;-58
2021/04/15 15:56:35;;;;;;;;;;;22.40;42.40;;;;;;5024029;28;19929;-58
2021/04/15 15:59:11;;;;;;;;;;;22.30;42.60;;;;;;5025512;28;20182;-59
2021/04/15 16:01:37;;;;;;;;;;;22.30;42.70;;;;;;5042913;28;19924;-58
2021/04/15 16:04:05;;;;;;;;;;;22.30;43.40;;;;;;5025017;28;19933;-59
2021/04/15 16:06:31;;;;;;;;;;;22.10;43.10;;;;;;5043505;28;20519;-59
2021/04/15 16:09:14;;;;;;;;;;;22.10;43.00;;;;;;5046596;28;20026;-59
2021/04/15 16:11:43;;;;;;;;;;;22.10;43.10;;;;;;5010781;28;20198;-59
2021/04/15 16:14:10;;;;;;;;;;;22.00;43.10;;;;;;5023849;28;19941;-59
2021/04/15 16:16:37;;;;;;;;;;;22.00;43.30;;;;;;5014360;28;20378;-58
2021/04/15 16:19:05;;;;;;;;;;;21.90;43.30;;;;;;5019764;28;19932;-58
2021/04/15 16:21:33;;;;;;;;;;;21.90;43.50;;;;;;5023832;28;19925;-58
2021/04/15 16:24:13;;;;;;;;;;;21.80;43.40;;;;;;5036680;28;19952;-58
2021/04/15 16:26:39;;;;;;;;;;;21.80;43.60;;;;;;5045866;28;19925;-59
2021/04/15 16:29:06;;;;;;;;;;;21.80;43.70;;;;;;5044388;28;19925;-58
2021/04/15 16:31:33;;;;;;;;;;;21.70;43.70;;;;;;5016047;28;19929;-58
2021/04/15 16:34:00;;;;;;;;;;;21.70;43.80;;;;;;5034287;28;19940;-58
2021/04/15 16:36:26;;;;;;;;;;;21.60;43.80;;;;;;5033049;28;19932;-58
2021/04/15 16:38:53;;;;;;;;;;;21.60;44.50;;;;;;5033035;28;19948;-60
2021/04/15 16:41:20;;;;;;;;;;;21.60;43.90;;;;;;5047588;28;20417;-59
2021/04/15 16:43:46;;;;;;;;;;;21.60;43.90;;;;;;5045472;28;19925;-59